sensor_id;sensor_type;location;lat;lon;timestamp;P1;durP1;ratioP1;P2;durP2;ratioP2
16468;SDS011;8345;50.902;6.956;2023-02-18T00:00:55;7.77;;;7.07;;
16468;SDS011;8345;50.902;6.956;2023-02-18T00:03:22;9.33;;;8.43;;
16468;SDS011;8345;50.902;6.956;2023-02-18T00:05:51;8.47;;;7.67;;
16468;SDS011;8345;50.902;6.956;2023-02-18T00:08:18;8.20;;;7.30;;
16468;SDS011;8345;50.902;6.956;2023-02-18T00:10:46;7.70;;;7.00;;
16468;SDS011;8345;50.902;6.956;2023-02-18T00:13:13;8.83;;;7.90;;
16468;SDS011;8345;50.902;6.956;2023-02-18T00:15:40;8.80;;;8.00;;
16468;SDS011;8345;50.902;6.956;2023-02-18T00:18:07;8.23;;;7.53;;
16468;SDS011;8345;50.902;6.956;2023-02-18T00:20:37;8.60;;;7.80;;
16468;SDS011;8345;50.902;6.956;2023-02-18T00:23:05;8.33;;;7.53;;
16468;SDS011;8345;50.902;6.956;2023-02-18T00:25:33;8.50;;;7.70;;
16468;SDS011;8345;50.902;6.956;2023-02-18T00:28:00;7.90;;;7.20;;
16468;SDS011;8345;50.902;6.956;2023-02-18T00:30:27;8.23;;;7.50;;
16468;SDS011;8345;50.902;6.956;2023-02-18T00:32:54;7.87;;;7.17;;
16468;SDS011;8345;50.902;6.956;2023-02-18T00:35:21;9.17;;;7.53;;
16468;SDS011;8345;50.902;6.956;2023-02-18T00:37:49;8.07;;;7.37;;
16468;SDS011;8345;50.902;6.956;2023-02-18T00:40:18;8.07;;;7.37;;
16468;SDS011;8345;50.902;6.956;2023-02-18T00:42:46;8.70;;;7.90;;
16468;SDS011;8345;50.902;6.956;2023-02-18T00:45:13;7.60;;;6.93;;
16468;SDS011;8345;50.902;6.956;2023-02-18T00:47:40;9.07;;;8.10;;
16468;SDS011;8345;50.902;6.956;2023-02-18T00:50:08;7.43;;;6.73;;
16468;SDS011;8345;50.902;6.956;2023-02-18T00:52:35;8.03;;;6.70;;
16468;SDS011;8345;50.902;6.956;2023-02-18T00:55:03;7.47;;;6.80;;
16468;SDS011;8345;50.902;6.956;2023-02-18T00:57:31;7.17;;;6.53;;
16468;SDS011;8345;50.902;6.956;2023-02-18T00:59:59;7.00;;;6.40;;
16468;SDS011;8345;50.902;6.956;2023-02-18T01:02:26;6.93;;;6.33;;
16468;SDS011;8345;50.902;6.956;2023-02-18T01:04:53;7.10;;;6.50;;
16468;SDS011;8345;50.902;6.956;2023-02-18T01:07:20;7.20;;;6.60;;
16468;SDS011;8345;50.902;6.956;2023-02-18T01:09:47;6.53;;;6.03;;
16468;SDS011;8345;50.902;6.956;2023-02-18T01:12:15;7.20;;;6.50;;
16468;SDS011;8345;50.902;6.956;2023-02-18T01:14:44;6.83;;;6.23;;
16468;SDS011;8345;50.902;6.956;2023-02-18T01:17:11;6.40;;;5.90;;
16468;SDS011;8345;50.902;6.956;2023-02-18T01:19:38;6.77;;;6.17;;
16468;SDS011;8345;50.902;6.956;2023-02-18T01:22:05;6.97;;;6.37;;
16468;SDS011;8345;50.902;6.956;2023-02-18T01:24:32;6.73;;;6.03;;
16468;SDS011;8345;50.902;6.956;2023-02-18T01:27:00;6.40;;;5.80;;
16468;SDS011;8345;50.902;6.956;2023-02-18T01:29:27;6.20;;;5.60;;
16468;SDS011;8345;50.902;6.956;2023-02-18T01:31:55;6.83;;;6.13;;
16468;SDS011;8345;50.902;6.956;2023-02-18T01:34:22;6.90;;;6.20;;
16468;SDS011;8345;50.902;6.956;2023-02-18T01:36:50;7.13;;;6.43;;
16468;SDS011;8345;50.902;6.956;2023-02-18T01:39:17;6.63;;;5.93;;
16468;SDS011;8345;50.902;6.956;2023-02-18T01:41:44;6.67;;;5.97;;
16468;SDS011;8345;50.902;6.956;2023-02-18T01:44:16;7.03;;;6.17;;
16468;SDS011;8345;50.902;6.956;2023-02-18T01:46:43;6.23;;;5.73;;
16468;SDS011;8345;50.902;6.956;2023-02-18T01:49:15;6.73;;;6.03;;
16468;SDS011;8345;50.902;6.956;2023-02-18T01:51:44;6.90;;;6.20;;
16468;SDS011;8345;50.902;6.956;2023-02-18T01:54:14;6.80;;;6.20;;
16468;SDS011;8345;50.902;6.956;2023-02-18T01:56:44;7.10;;;6.40;;
16468;SDS011;8345;50.902;6.956;2023-02-18T01:59:14;7.10;;;6.40;;
16468;SDS011;8345;50.902;6.956;2023-02-18T02:01:42;6.37;;;5.77;;
16468;SDS011;8345;50.902;6.956;2023-02-18T02:04:11;6.67;;;5.97;;
16468;SDS011;8345;50.902;6.956;2023-02-18T02:06:38;7.13;;;6.47;;
16468;SDS011;8345;50.902;6.956;2023-02-18T02:09:06;7.13;;;6.27;;
16468;SDS011;8345;50.902;6.956;2023-02-18T02:11:40;7.23;;;6.53;;
16468;SDS011;8345;50.902;6.956;2023-02-18T02:14:13;6.77;;;6.07;;
16468;SDS011;8345;50.902;6.956;2023-02-18T02:16:44;6.70;;;6.00;;
16468;SDS011;8345;50.902;6.956;2023-02-18T02:19:31;7.20;;;6.50;;
16468;SDS011;8345;50.902;6.956;2023-02-18T02:22:09;6.30;;;5.70;;
16468;SDS011;8345;50.902;6.956;2023-02-18T02:24:52;7.93;;;6.00;;
16468;SDS011;8345;50.902;6.956;2023-02-18T02:27:21;6.40;;;5.80;;
16468;SDS011;8345;50.902;6.956;2023-02-18T02:29:54;6.60;;;6.00;;
16468;SDS011;8345;50.902;6.956;2023-02-18T02:32:29;6.20;;;5.27;;
16468;SDS011;8345;50.902;6.956;2023-02-18T02:35:00;6.50;;;5.90;;
16468;SDS011;8345;50.902;6.956;2023-02-18T02:37:30;5.63;;;5.13;;
16468;SDS011;8345;50.902;6.956;2023-02-18T02:40:02;5.90;;;5.37;;
16468;SDS011;8345;50.902;6.956;2023-02-18T02:42:35;6.40;;;5.80;;
16468;SDS011;8345;50.902;6.956;2023-02-18T02:45:08;5.70;;;5.10;;
16468;SDS011;8345;50.902;6.956;2023-02-18T02:47:37;6.23;;;5.47;;
16468;SDS011;8345;50.902;6.956;2023-02-18T02:50:09;6.20;;;5.20;;
16468;SDS011;8345;50.902;6.956;2023-02-18T02:52:39;5.87;;;5.27;;
16468;SDS011;8345;50.902;6.956;2023-02-18T02:55:09;5.97;;;5.47;;
16468;SDS011;8345;50.902;6.956;2023-02-18T02:57:42;6.23;;;5.67;;
16468;SDS011;8345;50.902;6.956;2023-02-18T03:00:10;6.43;;;5.47;;
16468;SDS011;8345;50.902;6.956;2023-02-18T03:02:40;6.27;;;5.67;;
16468;SDS011;8345;50.902;6.956;2023-02-18T03:05:16;7.80;;;6.03;;
16468;SDS011;8345;50.902;6.956;2023-02-18T03:10:35;7.90;;;5.87;;
16468;SDS011;8345;50.902;6.956;2023-02-18T03:13:06;6.27;;;5.53;;
16468;SDS011;8345;50.902;6.956;2023-02-18T03:15:36;5.87;;;5.27;;
16468;SDS011;8345;50.902;6.956;2023-02-18T03:18:06;5.97;;;4.83;;
16468;SDS011;8345;50.902;6.956;2023-02-18T03:20:36;5.57;;;5.03;;
16468;SDS011;8345;50.902;6.956;2023-02-18T03:23:06;5.17;;;4.67;;
16468;SDS011;8345;50.902;6.956;2023-02-18T03:25:34;5.53;;;4.70;;
16468;SDS011;8345;50.902;6.956;2023-02-18T03:28:03;5.67;;;4.83;;
16468;SDS011;8345;50.902;6.956;2023-02-18T03:30:32;4.67;;;4.27;;
16468;SDS011;8345;50.902;6.956;2023-02-18T03:33:02;5.53;;;4.73;;
16468;SDS011;8345;50.902;6.956;2023-02-18T03:35:30;5.73;;;5.23;;
16468;SDS011;8345;50.902;6.956;2023-02-18T03:38:00;4.80;;;4.23;;
16468;SDS011;8345;50.902;6.956;2023-02-18T03:40:28;4.40;;;4.00;;
16468;SDS011;8345;50.902;6.956;2023-02-18T03:42:56;4.93;;;3.97;;
16468;SDS011;8345;50.902;6.956;2023-02-18T03:45:23;4.70;;;4.13;;
16468;SDS011;8345;50.902;6.956;2023-02-18T03:47:51;5.63;;;3.50;;
16468;SDS011;8345;50.902;6.956;2023-02-18T03:50:18;4.20;;;3.63;;
16468;SDS011;8345;50.902;6.956;2023-02-18T03:52:46;3.37;;;3.07;;
16468;SDS011;8345;50.902;6.956;2023-02-18T03:55:14;3.33;;;2.83;;
16468;SDS011;8345;50.902;6.956;2023-02-18T03:57:41;3.07;;;2.40;;
16468;SDS011;8345;50.902;6.956;2023-02-18T04:00:09;2.37;;;2.13;;
16468;SDS011;8345;50.902;6.956;2023-02-18T04:02:36;1.90;;;1.70;;
16468;SDS011;8345;50.902;6.956;2023-02-18T04:05:04;1.63;;;1.53;;
16468;SDS011;8345;50.902;6.956;2023-02-18T04:07:31;1.67;;;1.57;;
16468;SDS011;8345;50.902;6.956;2023-02-18T04:09:58;1.73;;;1.63;;
16468;SDS011;8345;50.902;6.956;2023-02-18T04:12:27;2.47;;;1.70;;
16468;SDS011;8345;50.902;6.956;2023-02-18T04:14:54;1.90;;;1.80;;
16468;SDS011;8345;50.902;6.956;2023-02-18T04:17:21;1.77;;;1.20;;
16468;SDS011;8345;50.902;6.956;2023-02-18T04:19:48;1.90;;;1.23;;
16468;SDS011;8345;50.902;6.956;2023-02-18T04:22:15;1.20;;;1.07;;
16468;SDS011;8345;50.902;6.956;2023-02-18T04:24:43;2.50;;;1.30;;
16468;SDS011;8345;50.902;6.956;2023-02-18T04:27:10;1.23;;;1.13;;
16468;SDS011;8345;50.902;6.956;2023-02-18T04:29:38;1.87;;;0.90;;
16468;SDS011;8345;50.902;6.956;2023-02-18T04:32:05;1.87;;;1.57;;
16468;SDS011;8345;50.902;6.956;2023-02-18T04:34:33;1.00;;;1.00;;
16468;SDS011;8345;50.902;6.956;2023-02-18T04:37:00;1.10;;;0.90;;
16468;SDS011;8345;50.902;6.956;2023-02-18T04:39:27;1.20;;;1.10;;
16468;SDS011;8345;50.902;6.956;2023-02-18T04:41:54;1.70;;;1.60;;
16468;SDS011;8345;50.902;6.956;2023-02-18T04:44:21;2.70;;;1.53;;
16468;SDS011;8345;50.902;6.956;2023-02-18T04:46:50;1.67;;;1.57;;
16468;SDS011;8345;50.902;6.956;2023-02-18T04:49:17;2.17;;;1.57;;
16468;SDS011;8345;50.902;6.956;2023-02-18T04:51:44;2.57;;;1.53;;
16468;SDS011;8345;50.902;6.956;2023-02-18T04:54:11;2.93;;;1.70;;
16468;SDS011;8345;50.902;6.956;2023-02-18T04:56:38;1.63;;;1.50;;
16468;SDS011;8345;50.902;6.956;2023-02-18T04:59:06;1.40;;;1.30;;
16468;SDS011;8345;50.902;6.956;2023-02-18T05:01:33;1.10;;;1.00;;
16468;SDS011;8345;50.902;6.956;2023-02-18T05:04:02;1.70;;;1.60;;
16468;SDS011;8345;50.902;6.956;2023-02-18T05:06:29;1.73;;;1.60;;
16468;SDS011;8345;50.902;6.956;2023-02-18T05:08:56;2.63;;;1.40;;
16468;SDS011;8345;50.902;6.956;2023-02-18T05:11:23;1.80;;;1.70;;
16468;SDS011;8345;50.902;6.956;2023-02-18T05:13:50;2.40;;;1.90;;
16468;SDS011;8345;50.902;6.956;2023-02-18T05:16:18;2.37;;;1.80;;
16468;SDS011;8345;50.902;6.956;2023-02-18T05:18:45;2.43;;;1.90;;
16468;SDS011;8345;50.902;6.956;2023-02-18T05:21:13;5.07;;;2.50;;
16468;SDS011;8345;50.902;6.956;2023-02-18T05:23:41;2.23;;;1.80;;
16468;SDS011;8345;50.902;6.956;2023-02-18T05:26:08;4.70;;;2.40;;
16468;SDS011;8345;50.902;6.956;2023-02-18T05:28:35;2.53;;;2.07;;
16468;SDS011;8345;50.902;6.956;2023-02-18T05:31:02;2.53;;;2.30;;
16468;SDS011;8345;50.902;6.956;2023-02-18T05:33:29;2.77;;;1.77;;
16468;SDS011;8345;50.902;6.956;2023-02-18T05:35:57;2.63;;;1.90;;
16468;SDS011;8345;50.902;6.956;2023-02-18T05:38:25;2.97;;;1.90;;
16468;SDS011;8345;50.902;6.956;2023-02-18T05:40:53;1.87;;;1.50;;
16468;SDS011;8345;50.902;6.956;2023-02-18T05:43:20;2.13;;;1.60;;
16468;SDS011;8345;50.902;6.956;2023-02-18T05:45:48;2.03;;;1.80;;
16468;SDS011;8345;50.902;6.956;2023-02-18T05:48:15;3.10;;;1.93;;
16468;SDS011;8345;50.902;6.956;2023-02-18T05:50:42;2.20;;;1.93;;
16468;SDS011;8345;50.902;6.956;2023-02-18T05:53:09;2.07;;;1.87;;
16468;SDS011;8345;50.902;6.956;2023-02-18T05:55:38;2.73;;;2.07;;
16468;SDS011;8345;50.902;6.956;2023-02-18T05:58:05;2.83;;;2.20;;
16468;SDS011;8345;50.902;6.956;2023-02-18T06:00:33;2.97;;;2.03;;
16468;SDS011;8345;50.902;6.956;2023-02-18T06:03:00;1.63;;;1.53;;
16468;SDS011;8345;50.902;6.956;2023-02-18T06:05:27;1.90;;;1.43;;
16468;SDS011;8345;50.902;6.956;2023-02-18T06:07:54;3.33;;;2.20;;
16468;SDS011;8345;50.902;6.956;2023-02-18T06:10:21;1.80;;;1.70;;
16468;SDS011;8345;50.902;6.956;2023-02-18T06:12:50;2.30;;;2.10;;
16468;SDS011;8345;50.902;6.956;2023-02-18T06:15:17;1.93;;;1.60;;
16468;SDS011;8345;50.902;6.956;2023-02-18T06:17:44;2.00;;;1.80;;
16468;SDS011;8345;50.902;6.956;2023-02-18T06:20:11;1.57;;;1.47;;
16468;SDS011;8345;50.902;6.956;2023-02-18T06:22:39;1.70;;;1.37;;
16468;SDS011;8345;50.902;6.956;2023-02-18T06:25:06;1.73;;;1.50;;
16468;SDS011;8345;50.902;6.956;2023-02-18T06:27:33;1.57;;;1.43;;
16468;SDS011;8345;50.902;6.956;2023-02-18T06:30:02;1.80;;;1.47;;
16468;SDS011;8345;50.902;6.956;2023-02-18T06:32:29;2.67;;;1.30;;
16468;SDS011;8345;50.902;6.956;2023-02-18T06:34:57;1.40;;;1.30;;
16468;SDS011;8345;50.902;6.956;2023-02-18T06:37:24;1.10;;;1.00;;
16468;SDS011;8345;50.902;6.956;2023-02-18T06:39:51;0.80;;;0.70;;
16468;SDS011;8345;50.902;6.956;2023-02-18T06:42:18;0.80;;;0.80;;
16468;SDS011;8345;50.902;6.956;2023-02-18T06:44:45;0.90;;;0.67;;
16468;SDS011;8345;50.902;6.956;2023-02-18T06:47:14;0.90;;;0.60;;
16468;SDS011;8345;50.902;6.956;2023-02-18T06:49:41;1.03;;;0.67;;
16468;SDS011;8345;50.902;6.956;2023-02-18T06:52:08;1.27;;;0.60;;
16468;SDS011;8345;50.902;6.956;2023-02-18T06:54:35;0.53;;;0.53;;
16468;SDS011;8345;50.902;6.956;2023-02-18T06:57:02;0.40;;;0.40;;
16468;SDS011;8345;50.902;6.956;2023-02-18T06:59:30;1.37;;;0.50;;
16468;SDS011;8345;50.902;6.956;2023-02-18T07:01:57;0.55;;;0.50;;
16468;SDS011;8345;50.902;6.956;2023-02-18T07:04:25;0.50;;;0.40;;
16468;SDS011;8345;50.902;6.956;2023-02-18T07:06:53;0.90;;;0.50;;
16468;SDS011;8345;50.902;6.956;2023-02-18T07:09:20;1.13;;;0.40;;
16468;SDS011;8345;50.902;6.956;2023-02-18T07:11:47;0.40;;;0.40;;
16468;SDS011;8345;50.902;6.956;2023-02-18T07:14:14;1.33;;;0.60;;
16468;SDS011;8345;50.902;6.956;2023-02-18T07:16:41;0.50;;;0.40;;
16468;SDS011;8345;50.902;6.956;2023-02-18T07:19:09;0.50;;;0.40;;
16468;SDS011;8345;50.902;6.956;2023-02-18T07:21:37;0.70;;;0.60;;
16468;SDS011;8345;50.902;6.956;2023-02-18T07:24:05;1.50;;;0.60;;
16468;SDS011;8345;50.902;6.956;2023-02-18T07:26:32;0.77;;;0.57;;
16468;SDS011;8345;50.902;6.956;2023-02-18T07:28:59;0.40;;;0.40;;
16468;SDS011;8345;50.902;6.956;2023-02-18T07:31:26;1.03;;;0.50;;
16468;SDS011;8345;50.902;6.956;2023-02-18T07:33:54;0.50;;;0.50;;
16468;SDS011;8345;50.902;6.956;2023-02-18T07:36:21;0.40;;;0.40;;
16468;SDS011;8345;50.902;6.956;2023-02-18T07:38:49;0.90;;;0.50;;
16468;SDS011;8345;50.902;6.956;2023-02-18T07:41:17;0.50;;;0.50;;
16468;SDS011;8345;50.902;6.956;2023-02-18T07:43:45;0.40;;;0.40;;
16468;SDS011;8345;50.902;6.956;2023-02-18T07:46:12;0.33;;;0.30;;
16468;SDS011;8345;50.902;6.956;2023-02-18T07:48:39;0.33;;;0.33;;
16468;SDS011;8345;50.902;6.956;2023-02-18T07:51:07;0.50;;;0.40;;
16468;SDS011;8345;50.902;6.956;2023-02-18T07:53:35;2.33;;;0.40;;
16468;SDS011;8345;50.902;6.956;2023-02-18T07:56:04;1.07;;;0.60;;
16468;SDS011;8345;50.902;6.956;2023-02-18T07:58:33;1.27;;;0.40;;
16468;SDS011;8345;50.902;6.956;2023-02-18T08:01:03;1.30;;;0.53;;
16468;SDS011;8345;50.902;6.956;2023-02-18T08:03:31;0.70;;;0.50;;
16468;SDS011;8345;50.902;6.956;2023-02-18T08:05:59;0.70;;;0.60;;
16468;SDS011;8345;50.902;6.956;2023-02-18T08:08:27;1.20;;;0.70;;
16468;SDS011;8345;50.902;6.956;2023-02-18T08:10:55;0.70;;;0.70;;
16468;SDS011;8345;50.902;6.956;2023-02-18T08:13:24;1.07;;;0.97;;
16468;SDS011;8345;50.902;6.956;2023-02-18T08:15:53;2.00;;;0.80;;
16468;SDS011;8345;50.902;6.956;2023-02-18T08:18:20;1.90;;;0.90;;
16468;SDS011;8345;50.902;6.956;2023-02-18T08:20:48;1.00;;;0.90;;
16468;SDS011;8345;50.902;6.956;2023-02-18T08:23:16;1.27;;;0.90;;
16468;SDS011;8345;50.902;6.956;2023-02-18T08:25:44;2.37;;;0.90;;
16468;SDS011;8345;50.902;6.956;2023-02-18T08:28:11;1.50;;;1.20;;
16468;SDS011;8345;50.902;6.956;2023-02-18T08:30:41;3.80;;;1.60;;
16468;SDS011;8345;50.902;6.956;2023-02-18T08:33:10;4.03;;;1.37;;
16468;SDS011;8345;50.902;6.956;2023-02-18T08:35:37;3.33;;;1.87;;
16468;SDS011;8345;50.902;6.956;2023-02-18T08:38:04;2.43;;;1.60;;
16468;SDS011;8345;50.902;6.956;2023-02-18T08:40:31;5.23;;;2.03;;
16468;SDS011;8345;50.902;6.956;2023-02-18T08:42:58;3.43;;;1.73;;
16468;SDS011;8345;50.902;6.956;2023-02-18T08:45:26;4.17;;;1.90;;
16468;SDS011;8345;50.902;6.956;2023-02-18T08:47:54;6.07;;;2.27;;
16468;SDS011;8345;50.902;6.956;2023-02-18T08:50:21;3.60;;;1.70;;
16468;SDS011;8345;50.902;6.956;2023-02-18T08:52:50;4.70;;;2.00;;
16468;SDS011;8345;50.902;6.956;2023-02-18T08:55:18;4.50;;;2.37;;
16468;SDS011;8345;50.902;6.956;2023-02-18T08:57:45;3.90;;;1.97;;
16468;SDS011;8345;50.902;6.956;2023-02-18T09:00:13;3.23;;;1.90;;
16468;SDS011;8345;50.902;6.956;2023-02-18T09:02:40;2.73;;;1.97;;
16468;SDS011;8345;50.902;6.956;2023-02-18T09:05:09;5.67;;;2.00;;
16468;SDS011;8345;50.902;6.956;2023-02-18T09:07:37;6.83;;;1.97;;
16468;SDS011;8345;50.902;6.956;2023-02-18T09:10:04;3.50;;;1.83;;
16468;SDS011;8345;50.902;6.956;2023-02-18T09:12:32;4.07;;;1.70;;
16468;SDS011;8345;50.902;6.956;2023-02-18T09:14:59;4.70;;;2.17;;
16468;SDS011;8345;50.902;6.956;2023-02-18T09:17:27;5.07;;;2.07;;
16468;SDS011;8345;50.902;6.956;2023-02-18T09:19:54;4.60;;;1.90;;
16468;SDS011;8345;50.902;6.956;2023-02-18T09:22:22;4.47;;;1.77;;
16468;SDS011;8345;50.902;6.956;2023-02-18T09:24:50;5.27;;;2.50;;
16468;SDS011;8345;50.902;6.956;2023-02-18T09:27:17;4.67;;;2.43;;
16468;SDS011;8345;50.902;6.956;2023-02-18T09:29:44;7.07;;;2.50;;
16468;SDS011;8345;50.902;6.956;2023-02-18T09:32:12;7.40;;;2.27;;
16468;SDS011;8345;50.902;6.956;2023-02-18T09:34:39;3.80;;;2.10;;
16468;SDS011;8345;50.902;6.956;2023-02-18T09:37:06;7.17;;;2.30;;
16468;SDS011;8345;50.902;6.956;2023-02-18T09:39:35;4.50;;;1.93;;
16468;SDS011;8345;50.902;6.956;2023-02-18T09:42:03;6.37;;;2.17;;
16468;SDS011;8345;50.902;6.956;2023-02-18T09:44:32;5.23;;;2.00;;
16468;SDS011;8345;50.902;6.956;2023-02-18T09:47:01;3.73;;;1.70;;
16468;SDS011;8345;50.902;6.956;2023-02-18T09:49:30;4.00;;;1.60;;
16468;SDS011;8345;50.902;6.956;2023-02-18T09:52:00;5.57;;;1.90;;
16468;SDS011;8345;50.902;6.956;2023-02-18T09:54:29;7.13;;;2.10;;
16468;SDS011;8345;50.902;6.956;2023-02-18T09:56:57;5.20;;;2.17;;
16468;SDS011;8345;50.902;6.956;2023-02-18T09:59:25;4.07;;;2.40;;
16468;SDS011;8345;50.902;6.956;2023-02-18T10:01:53;3.50;;;2.10;;
16468;SDS011;8345;50.902;6.956;2023-02-18T10:04:21;5.90;;;1.60;;
16468;SDS011;8345;50.902;6.956;2023-02-18T10:06:51;5.77;;;1.70;;
16468;SDS011;8345;50.902;6.956;2023-02-18T10:09:20;6.03;;;1.87;;
16468;SDS011;8345;50.902;6.956;2023-02-18T10:11:48;4.23;;;1.83;;
16468;SDS011;8345;50.902;6.956;2023-02-18T10:14:18;4.90;;;1.97;;
16468;SDS011;8345;50.902;6.956;2023-02-18T10:16:45;5.13;;;1.70;;
16468;SDS011;8345;50.902;6.956;2023-02-18T10:19:19;4.53;;;1.97;;
16468;SDS011;8345;50.902;6.956;2023-02-18T10:21:47;4.90;;;1.90;;
16468;SDS011;8345;50.902;6.956;2023-02-18T10:24:16;7.23;;;2.00;;
16468;SDS011;8345;50.902;6.956;2023-02-18T10:26:45;5.70;;;2.10;;
16468;SDS011;8345;50.902;6.956;2023-02-18T10:29:13;4.47;;;2.10;;
16468;SDS011;8345;50.902;6.956;2023-02-18T10:31:43;3.87;;;2.03;;
16468;SDS011;8345;50.902;6.956;2023-02-18T10:34:12;3.03;;;2.10;;
16468;SDS011;8345;50.902;6.956;2023-02-18T10:36:45;5.07;;;2.20;;
16468;SDS011;8345;50.902;6.956;2023-02-18T10:39:35;4.50;;;2.20;;
16468;SDS011;8345;50.902;6.956;2023-02-18T10:42:05;6.43;;;2.40;;
16468;SDS011;8345;50.902;6.956;2023-02-18T10:44:36;4.87;;;2.20;;
16468;SDS011;8345;50.902;6.956;2023-02-18T10:47:10;4.60;;;2.60;;
16468;SDS011;8345;50.902;6.956;2023-02-18T10:49:55;4.83;;;2.40;;
16468;SDS011;8345;50.902;6.956;2023-02-18T10:52:24;5.20;;;2.43;;
16468;SDS011;8345;50.902;6.956;2023-02-18T10:54:57;4.80;;;2.30;;
16468;SDS011;8345;50.902;6.956;2023-02-18T10:57:24;5.67;;;2.43;;
16468;SDS011;8345;50.902;6.956;2023-02-18T10:59:56;5.17;;;2.63;;
16468;SDS011;8345;50.902;6.956;2023-02-18T11:02:25;3.93;;;2.40;;
16468;SDS011;8345;50.902;6.956;2023-02-18T11:04:54;4.27;;;2.30;;
16468;SDS011;8345;50.902;6.956;2023-02-18T11:07:24;3.40;;;2.30;;
16468;SDS011;8345;50.902;6.956;2023-02-18T11:09:52;6.60;;;2.87;;
16468;SDS011;8345;50.902;6.956;2023-02-18T11:12:21;5.97;;;3.17;;
16468;SDS011;8345;50.902;6.956;2023-02-18T11:14:49;4.97;;;2.83;;
16468;SDS011;8345;50.902;6.956;2023-02-18T11:17:30;5.23;;;2.70;;
16468;SDS011;8345;50.902;6.956;2023-02-18T11:19:58;3.17;;;2.07;;
16468;SDS011;8345;50.902;6.956;2023-02-18T11:22:28;3.73;;;2.40;;
16468;SDS011;8345;50.902;6.956;2023-02-18T11:24:57;4.23;;;2.20;;
16468;SDS011;8345;50.902;6.956;2023-02-18T11:27:25;2.87;;;2.10;;
16468;SDS011;8345;50.902;6.956;2023-02-18T11:29:55;5.77;;;1.80;;
16468;SDS011;8345;50.902;6.956;2023-02-18T11:32:25;3.60;;;2.03;;
16468;SDS011;8345;50.902;6.956;2023-02-18T11:34:54;4.10;;;1.97;;
16468;SDS011;8345;50.902;6.956;2023-02-18T11:37:21;5.43;;;1.43;;
16468;SDS011;8345;50.902;6.956;2023-02-18T11:39:49;1.80;;;1.37;;
16468;SDS011;8345;50.902;6.956;2023-02-18T11:42:18;1.93;;;1.50;;
16468;SDS011;8345;50.902;6.956;2023-02-18T11:44:47;3.33;;;1.23;;
16468;SDS011;8345;50.902;6.956;2023-02-18T11:47:20;1.50;;;1.40;;
16468;SDS011;8345;50.902;6.956;2023-02-18T11:49:59;1.87;;;1.23;;
16468;SDS011;8345;50.902;6.956;2023-02-18T11:52:27;2.00;;;1.40;;
16468;SDS011;8345;50.902;6.956;2023-02-18T11:54:58;1.73;;;1.23;;
16468;SDS011;8345;50.902;6.956;2023-02-18T11:57:27;3.30;;;1.50;;
16468;SDS011;8345;50.902;6.956;2023-02-18T11:59:54;1.70;;;1.60;;
16468;SDS011;8345;50.902;6.956;2023-02-18T12:02:27;2.67;;;1.80;;
16468;SDS011;8345;50.902;6.956;2023-02-18T12:04:59;1.47;;;1.37;;
16468;SDS011;8345;50.902;6.956;2023-02-18T12:07:28;2.90;;;1.70;;
16468;SDS011;8345;50.902;6.956;2023-02-18T12:09:58;2.77;;;1.67;;
16468;SDS011;8345;50.902;6.956;2023-02-18T12:12:26;3.83;;;1.50;;
16468;SDS011;8345;50.902;6.956;2023-02-18T12:14:54;1.33;;;1.23;;
16468;SDS011;8345;50.902;6.956;2023-02-18T12:17:27;2.87;;;1.50;;
16468;SDS011;8345;50.902;6.956;2023-02-18T12:20:04;1.67;;;1.13;;
16468;SDS011;8345;50.902;6.956;2023-02-18T12:22:37;1.80;;;1.37;;
16468;SDS011;8345;50.902;6.956;2023-02-18T12:25:13;2.50;;;1.43;;
16468;SDS011;8345;50.902;6.956;2023-02-18T12:27:47;1.90;;;1.80;;
16468;SDS011;8345;50.902;6.956;2023-02-18T12:30:24;1.67;;;1.57;;
16468;SDS011;8345;50.902;6.956;2023-02-18T12:32:54;1.73;;;1.63;;
16468;SDS011;8345;50.902;6.956;2023-02-18T12:38:20;2.60;;;1.80;;
16468;SDS011;8345;50.902;6.956;2023-02-18T12:40:55;1.87;;;1.70;;
16468;SDS011;8345;50.902;6.956;2023-02-18T12:43:29;4.77;;;1.87;;
16468;SDS011;8345;50.902;6.956;2023-02-18T12:46:04;2.57;;;2.00;;
16468;SDS011;8345;50.902;6.956;2023-02-18T12:48:39;3.20;;;2.03;;
16468;SDS011;8345;50.902;6.956;2023-02-18T12:51:14;2.00;;;1.80;;
16468;SDS011;8345;50.902;6.956;2023-02-18T12:56:37;2.17;;;2.00;;
16468;SDS011;8345;50.902;6.956;2023-02-18T12:59:10;2.27;;;1.83;;
16468;SDS011;8345;50.902;6.956;2023-02-18T13:01:42;2.53;;;2.20;;
16468;SDS011;8345;50.902;6.956;2023-02-18T13:04:23;2.63;;;1.90;;
16468;SDS011;8345;50.902;6.956;2023-02-18T13:06:56;2.07;;;1.87;;
16468;SDS011;8345;50.902;6.956;2023-02-18T13:09:27;1.90;;;1.80;;
16468;SDS011;8345;50.902;6.956;2023-02-18T13:12:02;2.87;;;2.00;;
16468;SDS011;8345;50.902;6.956;2023-02-18T13:14:30;2.47;;;2.00;;
16468;SDS011;8345;50.902;6.956;2023-02-18T13:16:59;2.87;;;2.10;;
16468;SDS011;8345;50.902;6.956;2023-02-18T13:19:29;2.40;;;2.20;;
16468;SDS011;8345;50.902;6.956;2023-02-18T13:21:58;4.63;;;1.87;;
16468;SDS011;8345;50.902;6.956;2023-02-18T13:24:27;2.57;;;2.17;;
16468;SDS011;8345;50.902;6.956;2023-02-18T13:26:59;2.90;;;2.30;;
16468;SDS011;8345;50.902;6.956;2023-02-18T13:29:29;2.97;;;2.13;;
16468;SDS011;8345;50.902;6.956;2023-02-18T13:32:00;2.40;;;2.10;;
16468;SDS011;8345;50.902;6.956;2023-02-18T13:34:30;5.80;;;2.50;;
16468;SDS011;8345;50.902;6.956;2023-02-18T13:37:01;3.03;;;2.20;;
16468;SDS011;8345;50.902;6.956;2023-02-18T13:39:29;3.07;;;2.30;;
16468;SDS011;8345;50.902;6.956;2023-02-18T13:42:11;2.53;;;2.10;;
16468;SDS011;8345;50.902;6.956;2023-02-18T13:44:41;2.50;;;2.30;;
16468;SDS011;8345;50.902;6.956;2023-02-18T13:47:35;2.37;;;2.17;;
16468;SDS011;8345;50.902;6.956;2023-02-18T13:50:13;2.27;;;2.10;;
16468;SDS011;8345;50.902;6.956;2023-02-18T13:52:41;4.87;;;2.50;;
16468;SDS011;8345;50.902;6.956;2023-02-18T13:55:15;2.93;;;2.50;;
16468;SDS011;8345;50.902;6.956;2023-02-18T13:57:44;3.47;;;2.97;;
16468;SDS011;8345;50.902;6.956;2023-02-18T14:00:16;2.60;;;2.40;;
16468;SDS011;8345;50.902;6.956;2023-02-18T14:02:56;2.73;;;2.37;;
16468;SDS011;8345;50.902;6.956;2023-02-18T14:05:37;2.90;;;2.60;;
16468;SDS011;8345;50.902;6.956;2023-02-18T14:08:05;2.57;;;2.37;;
16468;SDS011;8345;50.902;6.956;2023-02-18T14:10:37;3.03;;;2.63;;
16468;SDS011;8345;50.902;6.956;2023-02-18T14:13:19;3.07;;;2.43;;
16468;SDS011;8345;50.902;6.956;2023-02-18T14:15:51;2.77;;;2.57;;
16468;SDS011;8345;50.902;6.956;2023-02-18T14:18:23;2.50;;;2.30;;
16468;SDS011;8345;50.902;6.956;2023-02-18T14:20:50;3.17;;;2.87;;
16468;SDS011;8345;50.902;6.956;2023-02-18T14:26:04;2.57;;;2.37;;
16468;SDS011;8345;50.902;6.956;2023-02-18T14:28:37;2.80;;;2.33;;
16468;SDS011;8345;50.902;6.956;2023-02-18T14:31:15;2.27;;;2.10;;
16468;SDS011;8345;50.902;6.956;2023-02-18T14:33:47;2.53;;;2.33;;
16468;SDS011;8345;50.902;6.956;2023-02-18T14:36:23;2.50;;;2.20;;
16468;SDS011;8345;50.902;6.956;2023-02-18T14:38:54;2.43;;;2.10;;
16468;SDS011;8345;50.902;6.956;2023-02-18T14:41:36;2.20;;;2.10;;
16468;SDS011;8345;50.902;6.956;2023-02-18T14:44:18;2.43;;;2.23;;
16468;SDS011;8345;50.902;6.956;2023-02-18T14:46:53;2.03;;;1.87;;
16468;SDS011;8345;50.902;6.956;2023-02-18T14:49:29;1.80;;;1.70;;
16468;SDS011;8345;50.902;6.956;2023-02-18T14:51:59;2.10;;;1.90;;
16468;SDS011;8345;50.902;6.956;2023-02-18T14:54:28;2.17;;;1.67;;
16468;SDS011;8345;50.902;6.956;2023-02-18T14:56:56;2.40;;;1.80;;
16468;SDS011;8345;50.902;6.956;2023-02-18T14:59:24;2.00;;;1.90;;
16468;SDS011;8345;50.902;6.956;2023-02-18T15:01:55;2.47;;;1.67;;
16468;SDS011;8345;50.902;6.956;2023-02-18T15:04:23;2.30;;;2.10;;
16468;SDS011;8345;50.902;6.956;2023-02-18T15:06:57;1.90;;;1.80;;
16468;SDS011;8345;50.902;6.956;2023-02-18T15:09:24;2.53;;;2.30;;
16468;SDS011;8345;50.902;6.956;2023-02-18T15:11:53;2.27;;;2.07;;
16468;SDS011;8345;50.902;6.956;2023-02-18T15:14:23;2.20;;;2.10;;
16468;SDS011;8345;50.902;6.956;2023-02-18T15:16:51;2.20;;;2.10;;
16468;SDS011;8345;50.902;6.956;2023-02-18T15:19:21;2.17;;;1.97;;
16468;SDS011;8345;50.902;6.956;2023-02-18T15:21:49;2.23;;;2.00;;
16468;SDS011;8345;50.902;6.956;2023-02-18T15:24:20;2.17;;;2.07;;